sensor_id;sensor_type;location;lat;lon;timestamp;temperature;humidity
7016;DHT22;3548;48.402;9.990;2023-07-09T00:00:51;19.70;99.90
7016;DHT22;3548;48.402;9.990;2023-07-09T00:03:18;19.70;99.90
7016;DHT22;3548;48.402;9.990;2023-07-09T00:05:47;19.60;99.90
7016;DHT22;3548;48.402;9.990;2023-07-09T00:08:24;19.60;99.90
7016;DHT22;3548;48.402;9.990;2023-07-09T00:10:52;19.60;99.90
7016;DHT22;3548;48.402;9.990;2023-07-09T00:13:17;19.50;99.90
7016;DHT22;3548;48.402;9.990;2023-07-09T00:15:43;19.50;99.90
7016;DHT22;3548;48.402;9.990;2023-07-09T00:18:09;19.50;99.90
7016;DHT22;3548;48.402;9.990;2023-07-09T00:20:35;19.40;99.90
7016;DHT22;3548;48.402;9.990;2023-07-09T00:23:00;19.30;99.90
7016;DHT22;3548;48.402;9.990;2023-07-09T00:25:30;19.20;99.90
7016;DHT22;3548;48.402;9.990;2023-07-09T00:27:56;19.20;99.90
7016;DHT22;3548;48.402;9.990;2023-07-09T00:30:23;19.10;99.90
7016;DHT22;3548;48.402;9.990;2023-07-09T00:32:52;19.10;99.90
7016;DHT22;3548;48.402;9.990;2023-07-09T00:35:18;19.10;99.90
7016;DHT22;3548;48.402;9.990;2023-07-09T00:37:45;19.00;99.90
7016;DHT22;3548;48.402;9.990;2023-07-09T00:40:16;19.00;99.90
7016;DHT22;3548;48.402;9.990;2023-07-09T00:42:45;19.00;99.90
7016;DHT22;3548;48.402;9.990;2023-07-09T00:45:23;19.00;99.90
7016;DHT22;3548;48.402;9.990;2023-07-09T00:47:58;18.90;99.90
7016;DHT22;3548;48.402;9.990;2023-07-09T00:50:47;18.90;99.90
7016;DHT22;3548;48.402;9.990;2023-07-09T00:53:19;18.90;99.90
7016;DHT22;3548;48.402;9.990;2023-07-09T00:56:06;18.80;99.90
7016;DHT22;3548;48.402;9.990;2023-07-09T00:58:35;18.80;99.90
7016;DHT22;3548;48.402;9.990;2023-07-09T01:01:05;18.80;99.90
7016;DHT22;3548;48.402;9.990;2023-07-09T01:03:38;18.70;99.90
7016;DHT22;3548;48.402;9.990;2023-07-09T01:06:06;18.70;99.90
7016;DHT22;3548;48.402;9.990;2023-07-09T01:08:35;18.60;99.90
7016;DHT22;3548;48.402;9.990;2023-07-09T01:11:01;18.60;99.90
7016;DHT22;3548;48.402;9.990;2023-07-09T01:13:27;18.60;99.90
7016;DHT22;3548;48.402;9.990;2023-07-09T01:15:53;18.60;99.90
7016;DHT22;3548;48.402;9.990;2023-07-09T01:18:19;18.60;99.90
7016;DHT22;3548;48.402;9.990;2023-07-09T01:20:46;18.50;99.90
7016;DHT22;3548;48.402;9.990;2023-07-09T01:23:12;18.50;99.90
7016;DHT22;3548;48.402;9.990;2023-07-09T01:25:44;18.40;99.90
7016;DHT22;3548;48.402;9.990;2023-07-09T01:28:10;18.40;99.90
7016;DHT22;3548;48.402;9.990;2023-07-09T01:30:39;18.40;99.90
7016;DHT22;3548;48.402;9.990;2023-07-09T01:33:05;18.40;99.90
7016;DHT22;3548;48.402;9.990;2023-07-09T01:35:34;18.30;99.90
7016;DHT22;3548;48.402;9.990;2023-07-09T01:38:00;18.30;99.90
7016;DHT22;3548;48.402;9.990;2023-07-09T01:40:28;18.20;99.90
7016;DHT22;3548;48.402;9.990;2023-07-09T01:42:55;18.20;99.90
7016;DHT22;3548;48.402;9.990;2023-07-09T01:45:21;18.10;99.90
7016;DHT22;3548;48.402;9.990;2023-07-09T01:47:47;18.10;99.90
7016;DHT22;3548;48.402;9.990;2023-07-09T01:50:13;18.10;99.90
7016;DHT22;3548;48.402;9.990;2023-07-09T01:52:40;18.00;99.90
7016;DHT22;3548;48.402;9.990;2023-07-09T01:55:12;18.00;99.90
7016;DHT22;3548;48.402;9.990;2023-07-09T01:57:38;17.90;99.90
7016;DHT22;3548;48.402;9.990;2023-07-09T02:00:09;18.00;99.90
7016;DHT22;3548;48.402;9.990;2023-07-09T02:02:36;17.90;99.90
7016;DHT22;3548;48.402;9.990;2023-07-09T02:05:04;17.90;99.90
7016;DHT22;3548;48.402;9.990;2023-07-09T02:07:30;17.90;99.90
7016;DHT22;3548;48.402;9.990;2023-07-09T02:09:57;17.80;99.90
7016;DHT22;3548;48.402;9.990;2023-07-09T02:12:22;17.80;99.90
7016;DHT22;3548;48.402;9.990;2023-07-09T02:14:48;17.70;99.90
7016;DHT22;3548;48.402;9.990;2023-07-09T02:17:15;17.70;99.90
7016;DHT22;3548;48.402;9.990;2023-07-09T02:19:42;17.70;99.90
7016;DHT22;3548;48.402;9.990;2023-07-09T02:22:07;17.70;99.90
7016;DHT22;3548;48.402;9.990;2023-07-09T02:24:33;17.60;99.90
7016;DHT22;3548;48.402;9.990;2023-07-09T02:27:01;17.60;99.90
7016;DHT22;3548;48.402;9.990;2023-07-09T02:29:28;17.60;99.90
7016;DHT22;3548;48.402;9.990;2023-07-09T02:31:56;17.60;99.90
7016;DHT22;3548;48.402;9.990;2023-07-09T02:34:24;17.60;99.90
7016;DHT22;3548;48.402;9.990;2023-07-09T02:36:52;17.60;99.90
7016;DHT22;3548;48.402;9.990;2023-07-09T02:39:18;17.60;99.90
7016;DHT22;3548;48.402;9.990;2023-07-09T02:41:44;17.60;99.90
7016;DHT22;3548;48.402;9.990;2023-07-09T02:44:10;17.70;99.90
7016;DHT22;3548;48.402;9.990;2023-07-09T02:46:35;17.70;99.90
7016;DHT22;3548;48.402;9.990;2023-07-09T02:49:03;17.60;99.90
7016;DHT22;3548;48.402;9.990;2023-07-09T02:51:29;17.60;99.90
7016;DHT22;3548;48.402;9.990;2023-07-09T02:53:56;17.60;99.90
7016;DHT22;3548;48.402;9.990;2023-07-09T02:56:22;17.60;99.90
7016;DHT22;3548;48.402;9.990;2023-07-09T02:58:49;17.50;99.90
7016;DHT22;3548;48.402;9.990;2023-07-09T03:01:15;17.50;99.90
7016;DHT22;3548;48.402;9.990;2023-07-09T03:03:40;17.50;99.90
7016;DHT22;3548;48.402;9.990;2023-07-09T03:06:06;17.50;99.90
7016;DHT22;3548;48.402;9.990;2023-07-09T03:08:32;17.50;99.90
7016;DHT22;3548;48.402;9.990;2023-07-09T03:10:57;17.50;99.90
7016;DHT22;3548;48.402;9.990;2023-07-09T03:13:23;17.50;99.90
7016;DHT22;3548;48.402;9.990;2023-07-09T03:15:56;17.40;99.90
7016;DHT22;3548;48.402;9.990;2023-07-09T03:18:22;17.40;99.90
7016;DHT22;3548;48.402;9.990;2023-07-09T03:20:48;17.30;99.90
7016;DHT22;3548;48.402;9.990;2023-07-09T03:23:13;17.20;99.90
7016;DHT22;3548;48.402;9.990;2023-07-09T03:25:43;17.20;99.90
7016;DHT22;3548;48.402;9.990;2023-07-09T03:28:10;17.10;99.90
7016;DHT22;3548;48.402;9.990;2023-07-09T03:30:43;17.00;99.90
7016;DHT22;3548;48.402;9.990;2023-07-09T03:33:10;17.00;99.90
7016;DHT22;3548;48.402;9.990;2023-07-09T03:35:36;16.90;99.90
7016;DHT22;3548;48.402;9.990;2023-07-09T03:38:04;16.90;99.90
7016;DHT22;3548;48.402;9.990;2023-07-09T03:40:29;16.90;99.90
7016;DHT22;3548;48.402;9.990;2023-07-09T03:42:55;16.90;99.90
7016;DHT22;3548;48.402;9.990;2023-07-09T03:45:21;16.90;99.90
7016;DHT22;3548;48.402;9.990;2023-07-09T03:47:46;16.90;99.90
7016;DHT22;3548;48.402;9.990;2023-07-09T03:50:12;16.90;99.90
7016;DHT22;3548;48.402;9.990;2023-07-09T03:52:37;16.90;99.90
7016;DHT22;3548;48.402;9.990;2023-07-09T03:55:03;16.90;99.90
7016;DHT22;3548;48.402;9.990;2023-07-09T03:57:30;17.00;99.90
7016;DHT22;3548;48.402;9.990;2023-07-09T03:59:56;17.00;99.90
7016;DHT22;3548;48.402;9.990;2023-07-09T04:02:21;17.10;99.90
7016;DHT22;3548;48.402;9.990;2023-07-09T04:04:47;17.10;99.90
7016;DHT22;3548;48.402;9.990;2023-07-09T04:07:12;17.20;99.90
7016;DHT22;3548;48.402;9.990;2023-07-09T04:09:38;17.30;99.90
7016;DHT22;3548;48.402;9.990;2023-07-09T04:12:04;17.60;99.90
7016;DHT22;3548;48.402;9.990;2023-07-09T04:14:30;17.90;99.90
7016;DHT22;3548;48.402;9.990;2023-07-09T04:16:55;18.20;99.90
7016;DHT22;3548;48.402;9.990;2023-07-09T04:19:22;18.60;99.90
7016;DHT22;3548;48.402;9.990;2023-07-09T04:21:48;19.20;99.90
7016;DHT22;3548;48.402;9.990;2023-07-09T04:24:16;19.80;99.90
7016;DHT22;3548;48.402;9.990;2023-07-09T04:26:42;20.40;99.90
7016;DHT22;3548;48.402;9.990;2023-07-09T04:29:07;21.00;99.90
7016;DHT22;3548;48.402;9.990;2023-07-09T04:31:33;21.70;99.90
7016;DHT22;3548;48.402;9.990;2023-07-09T04:33:59;22.40;99.90
7016;DHT22;3548;48.402;9.990;2023-07-09T04:36:24;23.00;99.90
7016;DHT22;3548;48.402;9.990;2023-07-09T04:38:51;23.30;99.90
7016;DHT22;3548;48.402;9.990;2023-07-09T04:41:17;23.90;99.80
7016;DHT22;3548;48.402;9.990;2023-07-09T04:43:42;24.30;98.30
7016;DHT22;3548;48.402;9.990;2023-07-09T04:46:08;24.50;97.00
7016;DHT22;3548;48.402;9.990;2023-07-09T04:48:33;24.60;97.00
7016;DHT22;3548;48.402;9.990;2023-07-09T04:50:59;24.60;96.90
7016;DHT22;3548;48.402;9.990;2023-07-09T04:53:25;24.90;96.50
7016;DHT22;3548;48.402;9.990;2023-07-09T04:55:51;25.30;95.60
7016;DHT22;3548;48.402;9.990;2023-07-09T04:58:17;25.70;95.00
7016;DHT22;3548;48.402;9.990;2023-07-09T05:00:44;25.80;94.20
7016;DHT22;3548;48.402;9.990;2023-07-09T05:03:09;26.00;94.10
7016;DHT22;3548;48.402;9.990;2023-07-09T05:05:35;26.10;93.60
7016;DHT22;3548;48.402;9.990;2023-07-09T05:08:00;26.00;93.10
7016;DHT22;3548;48.402;9.990;2023-07-09T05:10:26;25.90;93.20
7016;DHT22;3548;48.402;9.990;2023-07-09T05:12:54;25.50;93.40
7016;DHT22;3548;48.402;9.990;2023-07-09T05:15:21;25.00;94.10
7016;DHT22;3548;48.402;9.990;2023-07-09T05:17:47;24.50;94.80
7016;DHT22;3548;48.402;9.990;2023-07-09T05:20:14;24.20;95.50
7016;DHT22;3548;48.402;9.990;2023-07-09T05:22:40;23.80;96.00
7016;DHT22;3548;48.402;9.990;2023-07-09T05:25:06;23.40;96.10
7016;DHT22;3548;48.402;9.990;2023-07-09T05:27:32;23.00;96.80
7016;DHT22;3548;48.402;9.990;2023-07-09T05:29:57;22.80;97.30
7016;DHT22;3548;48.402;9.990;2023-07-09T05:32:23;22.60;97.70
7016;DHT22;3548;48.402;9.990;2023-07-09T05:34:49;22.40;98.60
7016;DHT22;3548;48.402;9.990;2023-07-09T05:37:14;22.20;98.90
7016;DHT22;3548;48.402;9.990;2023-07-09T05:39:40;22.20;99.10
7016;DHT22;3548;48.402;9.990;2023-07-09T05:42:06;22.10;99.30
7016;DHT22;3548;48.402;9.990;2023-07-09T05:44:32;22.00;99.90
7016;DHT22;3548;48.402;9.990;2023-07-09T05:46:58;22.00;99.90
7016;DHT22;3548;48.402;9.990;2023-07-09T05:49:23;22.00;99.90
7016;DHT22;3548;48.402;9.990;2023-07-09T05:51:49;22.00;99.90
7016;DHT22;3548;48.402;9.990;2023-07-09T05:54:14;22.00;99.90
7016;DHT22;3548;48.402;9.990;2023-07-09T05:56:40;22.10;99.90
7016;DHT22;3548;48.402;9.990;2023-07-09T05:59:05;22.10;99.90
7016;DHT22;3548;48.402;9.990;2023-07-09T06:01:31;22.00;99.90
7016;DHT22;3548;48.402;9.990;2023-07-09T06:03:57;22.00;99.90
7016;DHT22;3548;48.402;9.990;2023-07-09T06:06:23;22.10;99.90
7016;DHT22;3548;48.402;9.990;2023-07-09T06:08:49;22.20;99.90
7016;DHT22;3548;48.402;9.990;2023-07-09T06:11:15;22.10;99.90
7016;DHT22;3548;48.402;9.990;2023-07-09T06:13:43;22.10;99.90
7016;DHT22;3548;48.402;9.990;2023-07-09T06:16:09;22.10;99.90
7016;DHT22;3548;48.402;9.990;2023-07-09T06:18:34;22.10;99.90
7016;DHT22;3548;48.402;9.990;2023-07-09T06:21:01;22.20;99.90
7016;DHT22;3548;48.402;9.990;2023-07-09T06:23:28;22.30;99.90
7016;DHT22;3548;48.402;9.990;2023-07-09T06:25:54;22.30;99.90
7016;DHT22;3548;48.402;9.990;2023-07-09T06:28:24;22.40;99.90
7016;DHT22;3548;48.402;9.990;2023-07-09T06:30:51;22.40;99.90
7016;DHT22;3548;48.402;9.990;2023-07-09T06:33:18;22.50;99.90
7016;DHT22;3548;48.402;9.990;2023-07-09T06:35:52;22.60;99.90
7016;DHT22;3548;48.402;9.990;2023-07-09T06:38:19;22.60;99.90
7016;DHT22;3548;48.402;9.990;2023-07-09T06:40:45;22.70;99.90
7016;DHT22;3548;48.402;9.990;2023-07-09T06:43:11;22.80;99.90
7016;DHT22;3548;48.402;9.990;2023-07-09T06:45:37;22.90;99.90
7016;DHT22;3548;48.402;9.990;2023-07-09T06:48:03;23.00;99.90
7016;DHT22;3548;48.402;9.990;2023-07-09T06:50:32;23.10;99.90
7016;DHT22;3548;48.402;9.990;2023-07-09T06:52:58;23.20;99.90
7016;DHT22;3548;48.402;9.990;2023-07-09T06:55:23;23.40;99.90
7016;DHT22;3548;48.402;9.990;2023-07-09T06:57:49;23.60;99.90
7016;DHT22;3548;48.402;9.990;2023-07-09T07:00:14;23.70;99.90
7016;DHT22;3548;48.402;9.990;2023-07-09T07:02:40;23.80;99.90
7016;DHT22;3548;48.402;9.990;2023-07-09T07:05:06;24.00;99.90
7016;DHT22;3548;48.402;9.990;2023-07-09T07:07:31;24.10;99.90
7016;DHT22;3548;48.402;9.990;2023-07-09T07:09:57;24.20;99.90
7016;DHT22;3548;48.402;9.990;2023-07-09T07:12:28;24.30;99.90
7016;DHT22;3548;48.402;9.990;2023-07-09T07:14:55;24.40;99.90
7016;DHT22;3548;48.402;9.990;2023-07-09T07:17:21;24.50;99.60
7016;DHT22;3548;48.402;9.990;2023-07-09T07:19:48;24.60;99.50
7016;DHT22;3548;48.402;9.990;2023-07-09T07:22:13;24.60;99.30
7016;DHT22;3548;48.402;9.990;2023-07-09T07:24:39;24.80;99.30
7016;DHT22;3548;48.402;9.990;2023-07-09T07:27:05;24.90;99.10
7016;DHT22;3548;48.402;9.990;2023-07-09T07:29:30;25.00;98.90
7016;DHT22;3548;48.402;9.990;2023-07-09T07:31:56;25.10;98.40
7016;DHT22;3548;48.402;9.990;2023-07-09T07:34:22;25.20;98.20
7016;DHT22;3548;48.402;9.990;2023-07-09T07:36:49;25.30;97.90
7016;DHT22;3548;48.402;9.990;2023-07-09T07:39:15;25.30;98.00
7016;DHT22;3548;48.402;9.990;2023-07-09T07:41:40;25.50;98.10
7016;DHT22;3548;48.402;9.990;2023-07-09T07:44:06;25.70;98.00
7016;DHT22;3548;48.402;9.990;2023-07-09T07:46:33;25.80;97.50
7016;DHT22;3548;48.402;9.990;2023-07-09T07:48:59;25.90;97.30
7016;DHT22;3548;48.402;9.990;2023-07-09T07:51:25;26.00;97.20
7016;DHT22;3548;48.402;9.990;2023-07-09T07:53:50;26.00;97.10
7016;DHT22;3548;48.402;9.990;2023-07-09T07:56:16;26.10;97.10
7016;DHT22;3548;48.402;9.990;2023-07-09T07:58:41;26.20;96.90
7016;DHT22;3548;48.402;9.990;2023-07-09T08:01:07;26.30;96.60
7016;DHT22;3548;48.402;9.990;2023-07-09T08:03:33;26.40;96.50
7016;DHT22;3548;48.402;9.990;2023-07-09T08:05:59;26.50;96.20
7016;DHT22;3548;48.402;9.990;2023-07-09T08:08:25;26.60;95.90
7016;DHT22;3548;48.402;9.990;2023-07-09T08:10:50;26.70;95.70
7016;DHT22;3548;48.402;9.990;2023-07-09T08:13:17;26.80;95.20
7016;DHT22;3548;48.402;9.990;2023-07-09T08:15:42;26.80;95.00
7016;DHT22;3548;48.402;9.990;2023-07-09T08:18:09;27.00;94.90
7016;DHT22;3548;48.402;9.990;2023-07-09T08:20:35;27.10;94.60
7016;DHT22;3548;48.402;9.990;2023-07-09T08:23:00;27.20;94.10
7016;DHT22;3548;48.402;9.990;2023-07-09T08:25:27;27.40;93.50
7016;DHT22;3548;48.402;9.990;2023-07-09T08:27:52;27.50;93.30
7016;DHT22;3548;48.402;9.990;2023-07-09T08:30:18;27.70;92.70
7016;DHT22;3548;48.402;9.990;2023-07-09T08:32:43;27.80;92.30
7016;DHT22;3548;48.402;9.990;2023-07-09T08:35:09;28.00;92.20
7016;DHT22;3548;48.402;9.990;2023-07-09T08:37:37;28.10;91.70
7016;DHT22;3548;48.402;9.990;2023-07-09T08:40:04;28.30;90.40
7016;DHT22;3548;48.402;9.990;2023-07-09T08:42:35;28.40;89.40
7016;DHT22;3548;48.402;9.990;2023-07-09T08:45:16;28.50;89.80
7016;DHT22;3548;48.402;9.990;2023-07-09T08:50:41;28.70;90.10
7016;DHT22;3548;48.402;9.990;2023-07-09T08:53:18;28.80;89.60
7016;DHT22;3548;48.402;9.990;2023-07-09T08:55:45;29.00;88.80
7016;DHT22;3548;48.402;9.990;2023-07-09T08:58:31;29.10;87.10
7016;DHT22;3548;48.402;9.990;2023-07-09T09:01:03;29.20;86.30
7016;DHT22;3548;48.402;9.990;2023-07-09T09:06:01;29.40;85.40
7016;DHT22;3548;48.402;9.990;2023-07-09T09:08:55;29.50;84.40
7016;DHT22;3548;48.402;9.990;2023-07-09T09:14:33;29.80;81.40
7016;DHT22;3548;48.402;9.990;2023-07-09T09:16:59;29.80;81.20
7016;DHT22;3548;48.402;9.990;2023-07-09T09:19:32;29.80;81.00
7016;DHT22;3548;48.402;9.990;2023-07-09T09:22:09;29.90;80.50
7016;DHT22;3548;48.402;9.990;2023-07-09T09:24:46;30.00;80.20
7016;DHT22;3548;48.402;9.990;2023-07-09T09:27:15;30.10;79.60
7016;DHT22;3548;48.402;9.990;2023-07-09T09:29:40;30.20;79.20
7016;DHT22;3548;48.402;9.990;2023-07-09T09:32:24;30.30;79.60
7016;DHT22;3548;48.402;9.990;2023-07-09T09:34:50;30.40;77.60
7016;DHT22;3548;48.402;9.990;2023-07-09T09:37:26;30.50;76.90
7016;DHT22;3548;48.402;9.990;2023-07-09T09:39:52;30.50;73.80
7016;DHT22;3548;48.402;9.990;2023-07-09T09:42:17;30.50;72.70
7016;DHT22;3548;48.402;9.990;2023-07-09T09:44:44;30.60;70.00
7016;DHT22;3548;48.402;9.990;2023-07-09T09:47:13;30.70;70.60
7016;DHT22;3548;48.402;9.990;2023-07-09T09:49:42;30.80;67.90
7016;DHT22;3548;48.402;9.990;2023-07-09T09:52:17;30.80;68.80
7016;DHT22;3548;48.402;9.990;2023-07-09T09:54:53;31.00;66.60
7016;DHT22;3548;48.402;9.990;2023-07-09T09:57:22;31.10;65.90
7016;DHT22;3548;48.402;9.990;2023-07-09T09:59:48;31.20;63.00
7016;DHT22;3548;48.402;9.990;2023-07-09T10:02:17;31.30;62.50
7016;DHT22;3548;48.402;9.990;2023-07-09T10:04:44;31.40;62.50
7016;DHT22;3548;48.402;9.990;2023-07-09T10:07:31;31.60;63.00
7016;DHT22;3548;48.402;9.990;2023-07-09T10:09:58;31.70;62.10
7016;DHT22;3548;48.402;9.990;2023-07-09T10:15:45;31.80;55.80
7016;DHT22;3548;48.402;9.990;2023-07-09T10:21:29;31.70;57.00
7016;DHT22;3548;48.402;9.990;2023-07-09T10:26:46;31.90;57.70
7016;DHT22;3548;48.402;9.990;2023-07-09T10:35:04;32.30;54.70
7016;DHT22;3548;48.402;9.990;2023-07-09T10:40:21;32.40;53.20
7016;DHT22;3548;48.402;9.990;2023-07-09T10:42:56;32.40;53.80
7016;DHT22;3548;48.402;9.990;2023-07-09T10:45:39;32.50;52.50
7016;DHT22;3548;48.402;9.990;2023-07-09T10:50:58;32.50;52.70
7016;DHT22;3548;48.402;9.990;2023-07-09T10:53:34;32.50;53.40
7016;DHT22;3548;48.402;9.990;2023-07-09T10:56:12;32.50;51.60
7016;DHT22;3548;48.402;9.990;2023-07-09T10:58:57;32.60;50.50
7016;DHT22;3548;48.402;9.990;2023-07-09T11:01:33;32.70;48.70
7016;DHT22;3548;48.402;9.990;2023-07-09T11:04:04;32.80;48.20
7016;DHT22;3548;48.402;9.990;2023-07-09T11:06:37;32.90;47.50
7016;DHT22;3548;48.402;9.990;2023-07-09T11:09:11;33.00;47.30
7016;DHT22;3548;48.402;9.990;2023-07-09T11:11:42;33.10;46.80
7016;DHT22;3548;48.402;9.990;2023-07-09T11:14:31;33.10;46.90
7016;DHT22;3548;48.402;9.990;2023-07-09T11:16:59;33.30;46.80
7016;DHT22;3548;48.402;9.990;2023-07-09T11:19:26;33.40;45.90
7016;DHT22;3548;48.402;9.990;2023-07-09T11:22:12;33.40;45.30
7016;DHT22;3548;48.402;9.990;2023-07-09T11:25:12;33.40;44.40
7016;DHT22;3548;48.402;9.990;2023-07-09T11:28:00;33.50;44.40
7016;DHT22;3548;48.402;9.990;2023-07-09T11:30:28;33.50;44.40
7016;DHT22;3548;48.402;9.990;2023-07-09T11:33:15;33.60;44.30
7016;DHT22;3548;48.402;9.990;2023-07-09T11:35:50;33.60;44.50
7016;DHT22;3548;48.402;9.990;2023-07-09T11:38:24;33.60;44.30
7016;DHT22;3548;48.402;9.990;2023-07-09T11:40:55;33.70;44.40
7016;DHT22;3548;48.402;9.990;2023-07-09T11:43:35;33.80;44.60
7016;DHT22;3548;48.402;9.990;2023-07-09T11:46:22;33.90;43.90
7016;DHT22;3548;48.402;9.990;2023-07-09T11:48:50;33.80;43.40
7016;DHT22;3548;48.402;9.990;2023-07-09T11:51:26;33.70;43.60
7016;DHT22;3548;48.402;9.990;2023-07-09T11:53:54;33.70;43.60
7016;DHT22;3548;48.402;9.990;2023-07-09T11:56:24;33.80;43.00
7016;DHT22;3548;48.402;9.990;2023-07-09T11:58:52;33.90;43.60
7016;DHT22;3548;48.402;9.990;2023-07-09T12:01:24;34.00;43.20
7016;DHT22;3548;48.402;9.990;2023-07-09T12:03:51;34.00;43.00
7016;DHT22;3548;48.402;9.990;2023-07-09T12:06:27;34.00;42.50
7016;DHT22;3548;48.402;9.990;2023-07-09T12:08:54;34.10;41.90
7016;DHT22;3548;48.402;9.990;2023-07-09T12:11:31;34.10;41.40
7016;DHT22;3548;48.402;9.990;2023-07-09T12:14:21;34.10;41.50
7016;DHT22;3548;48.402;9.990;2023-07-09T12:16:48;34.10;40.70
7016;DHT22;3548;48.402;9.990;2023-07-09T12:19:19;34.00;40.70
7016;DHT22;3548;48.402;9.990;2023-07-09T12:21:48;34.10;40.60
7016;DHT22;3548;48.402;9.990;2023-07-09T12:24:20;34.20;40.10
7016;DHT22;3548;48.402;9.990;2023-07-09T12:26:57;34.30;39.50
7016;DHT22;3548;48.402;9.990;2023-07-09T12:29:28;34.30;40.00
7016;DHT22;3548;48.402;9.990;2023-07-09T12:31:56;34.30;40.40
7016;DHT22;3548;48.402;9.990;2023-07-09T12:34:23;34.30;40.70
7016;DHT22;3548;48.402;9.990;2023-07-09T12:36:50;34.20;40.10
7016;DHT22;3548;48.402;9.990;2023-07-09T12:39:24;34.10;40.50
7016;DHT22;3548;48.402;9.990;2023-07-09T12:41:51;34.00;40.90
7016;DHT22;3548;48.402;9.990;2023-07-09T12:44:20;33.90;40.90
7016;DHT22;3548;48.402;9.990;2023-07-09T12:46:48;33.90;41.50
7016;DHT22;3548;48.402;9.990;2023-07-09T12:49:29;33.90;41.10
7016;DHT22;3548;48.402;9.990;2023-07-09T12:51:55;33.90;41.00
7016;DHT22;3548;48.402;9.990;2023-07-09T12:54:21;33.70;41.00
7016;DHT22;3548;48.402;9.990;2023-07-09T12:56:50;33.80;40.70
7016;DHT22;3548;48.402;9.990;2023-07-09T12:59:23;33.90;40.60
7016;DHT22;3548;48.402;9.990;2023-07-09T13:02:19;34.10;40.30
7016;DHT22;3548;48.402;9.990;2023-07-09T13:04:46;34.20;39.90
7016;DHT22;3548;48.402;9.990;2023-07-09T13:09:51;34.40;39.10
7016;DHT22;3548;48.402;9.990;2023-07-09T13:12:17;34.50;39.00
7016;DHT22;3548;48.402;9.990;2023-07-09T13:14:55;34.60;39.50
7016;DHT22;3548;48.402;9.990;2023-07-09T13:17:21;34.80;38.70
7016;DHT22;3548;48.402;9.990;2023-07-09T13:19:46;35.00;38.70
7016;DHT22;3548;48.402;9.990;2023-07-09T13:22:14;35.10;38.70
7016;DHT22;3548;48.402;9.990;2023-07-09T13:24:41;35.20;38.70
7016;DHT22;3548;48.402;9.990;2023-07-09T13:27:11;35.40;38.50
7016;DHT22;3548;48.402;9.990;2023-07-09T13:29:37;35.30;38.50
7016;DHT22;3548;48.402;9.990;2023-07-09T13:32:09;35.20;38.50
7016;DHT22;3548;48.402;9.990;2023-07-09T13:34:35;35.10;38.20
7016;DHT22;3548;48.402;9.990;2023-07-09T13:37:01;35.00;38.10
7016;DHT22;3548;48.402;9.990;2023-07-09T13:39:26;34.90;37.90
7016;DHT22;3548;48.402;9.990;2023-07-09T13:41:52;35.00;38.70
7016;DHT22;3548;48.402;9.990;2023-07-09T13:44:27;35.00;39.50
7016;DHT22;3548;48.402;9.990;2023-07-09T13:46:54;34.90;39.30
7016;DHT22;3548;48.402;9.990;2023-07-09T13:49:22;34.70;40.00
7016;DHT22;3548;48.402;9.990;2023-07-09T13:51:50;34.60;40.50
7016;DHT22;3548;48.402;9.990;2023-07-09T13:54:24;34.50;40.70
7016;DHT22;3548;48.402;9.990;2023-07-09T13:56:51;34.60;40.60
7016;DHT22;3548;48.402;9.990;2023-07-09T13:59:21;34.60;39.90
7016;DHT22;3548;48.402;9.990;2023-07-09T14:01:49;34.80;39.50
7016;DHT22;3548;48.402;9.990;2023-07-09T14:04:17;34.90;39.50
7016;DHT22;3548;48.402;9.990;2023-07-09T14:06:43;34.80;38.80
7016;DHT22;3548;48.402;9.990;2023-07-09T14:09:10;34.90;38.30
7016;DHT22;3548;48.402;9.990;2023-07-09T14:11:40;35.00;38.10
7016;DHT22;3548;48.402;9.990;2023-07-09T14:14:24;35.00;38.10
7016;DHT22;3548;48.402;9.990;2023-07-09T14:16:51;35.00;37.00
7016;DHT22;3548;48.402;9.990;2023-07-09T14:19:21;35.10;37.10
7016;DHT22;3548;48.402;9.990;2023-07-09T14:21:48;35.30;37.00
7016;DHT22;3548;48.402;9.990;2023-07-09T14:26:48;35.50;35.70
7016;DHT22;3548;48.402;9.990;2023-07-09T14:29:14;35.50;35.50
7016;DHT22;3548;48.402;9.990;2023-07-09T14:31:41;35.60;36.00
7016;DHT22;3548;48.402;9.990;2023-07-09T14:34:27;35.70;36.00
7016;DHT22;3548;48.402;9.990;2023-07-09T14:36:55;35.60;36.10
7016;DHT22;3548;48.402;9.990;2023-07-09T14:39:20;35.70;36.00
7016;DHT22;3548;48.402;9.990;2023-07-09T14:41:46;35.60;34.90
7016;DHT22;3548;48.402;9.990;2023-07-09T14:44:25;35.40;34.00
7016;DHT22;3548;48.402;9.990;2023-07-09T14:46:53;35.20;34.40
7016;DHT22;3548;48.402;9.990;2023-07-09T14:49:20;35.10;33.20
7016;DHT22;3548;48.402;9.990;2023-07-09T14:51:46;34.90;33.30
7016;DHT22;3548;48.402;9.990;2023-07-09T14:54:26;34.90;33.40
7016;DHT22;3548;48.402;9.990;2023-07-09T14:56:53;35.00;34.10
7016;DHT22;3548;48.402;9.990;2023-07-09T14:59:19;35.00;34.70
7016;DHT22;3548;48.402;9.990;2023-07-09T15:01:45;35.10;35.50
7016;DHT22;3548;48.402;9.990;2023-07-09T15:06:49;35.10;36.10
7016;DHT22;3548;48.402;9.990;2023-07-09T15:09:16;35.10;36.10
7016;DHT22;3548;48.402;9.990;2023-07-09T15:11:45;35.20;36.70
7016;DHT22;3548;48.402;9.990;2023-07-09T15:14:11;35.10;37.00
7016;DHT22;3548;48.402;9.990;2023-07-09T15:16:36;35.20;37.80
7016;DHT22;3548;48.402;9.990;2023-07-09T15:19:08;35.20;37.70
7016;DHT22;3548;48.402;9.990;2023-07-09T15:21:37;35.20;38.20
7016;DHT22;3548;48.402;9.990;2023-07-09T15:24:02;35.00;37.40
7016;DHT22;3548;48.402;9.990;2023-07-09T15:26:28;35.00;37.60
7016;DHT22;3548;48.402;9.990;2023-07-09T15:28:53;35.00;37.80
7016;DHT22;3548;48.402;9.990;2023-07-09T15:31:19;35.00;37.60
7016;DHT22;3548;48.402;9.990;2023-07-09T15:33:45;35.20;37.90
7016;DHT22;3548;48.402;9.990;2023-07-09T15:36:11;35.30;37.90
7016;DHT22;3548;48.402;9.990;2023-07-09T15:38:37;35.30;37.70
7016;DHT22;3548;48.402;9.990;2023-07-09T15:41:13;35.40;37.50
7016;DHT22;3548;48.402;9.990;2023-07-09T15:43:42;35.40;37.80
7016;DHT22;3548;48.402;9.990;2023-07-09T15:46:16;35.50;37.70
7016;DHT22;3548;48.402;9.990;2023-07-09T15:48:44;35.50;37.10
7016;DHT22;3548;48.402;9.990;2023-07-09T15:51:10;35.50;36.60
7016;DHT22;3548;48.402;9.990;2023-07-09T15:53:36;35.50;37.10
7016;DHT22;3548;48.402;9.990;2023-07-09T15:56:04;35.60;37.30
7016;DHT22;3548;48.402;9.990;2023-07-09T15:58:42;35.80;37.30
7016;DHT22;3548;48.402;9.990;2023-07-09T16:01:11;35.90;37.10
7016;DHT22;3548;48.402;9.990;2023-07-09T16:03:37;35.90;36.90
7016;DHT22;3548;48.402;9.990;2023-07-09T16:06:02;35.90;36.70
7016;DHT22;3548;48.402;9.990;2023-07-09T16:08:28;35.80;36.70
7016;DHT22;3548;48.402;9.990;2023-07-09T16:10:54;35.80;36.80
7016;DHT22;3548;48.402;9.990;2023-07-09T16:13:23;35.80;35.50
7016;DHT22;3548;48.402;9.990;2023-07-09T16:15:49;35.80;34.40
7016;DHT22;3548;48.402;9.990;2023-07-09T16:18:15;35.80;34.50
7016;DHT22;3548;48.402;9.990;2023-07-09T16:20:41;35.70;35.50
7016;DHT22;3548;48.402;9.990;2023-07-09T16:23:16;35.50;35.30
7016;DHT22;3548;48.402;9.990;2023-07-09T16:25:42;35.40;36.10
7016;DHT22;3548;48.402;9.990;2023-07-09T16:28:15;35.10;34.60
7016;DHT22;3548;48.402;9.990;2023-07-09T16:30:41;34.90;35.40
7016;DHT22;3548;48.402;9.990;2023-07-09T16:33:07;34.80;35.80
7016;DHT22;3548;48.402;9.990;2023-07-09T16:35:32;34.80;36.30
7016;DHT22;3548;48.402;9.990;2023-07-09T16:37:58;34.70;36.10
7016;DHT22;3548;48.402;9.990;2023-07-09T16:40:29;34.80;36.60
7016;DHT22;3548;48.402;9.990;2023-07-09T16:42:57;34.70;36.70
7016;DHT22;3548;48.402;9.990;2023-07-09T16:45:25;34.80;36.70
7016;DHT22;3548;48.402;9.990;2023-07-09T16:47:51;34.80;35.70